• Join FlightAware (Why Join?)
  • Login
  • US Flag 
02:59AM EDT


 

Airport Tracker/Info


-or-


 

Live Flight TrackerFlight Track Log ✈ EJM77 ✈ 28-Jun-2013 ✈ KMSP - KASE

Flight Track Log - Related Links

Times and Time Zones

All times are in EDT time to prevent confusion due to time zone crossing. See the EJM77 flight status page for this flight to view local times or setup timezone preferences in your user account.

Time Position Orientation Groundspeed Altitude Reporting Facility
EDT Latitude Longitude Course Direction KTS MPH feet Rate Location/Type
05:28PM 44.9000 -93.3000 246° West 231 266 3,500  Level Minneapolis TRACON
05:29PM 44.8333 -93.3667 215° Southwest 277 319 6,200 2,700 Climbing Minneapolis TRACON
05:30PM 44.7833 -93.4500 230° Southwest 290 334 9,000 2,400 Climbing Minneapolis TRACON
05:32PM 44.7206 -93.5847 237° Southwest 303 349 12,100 2,220 Climbing Minneapolis Center
05:33PM 44.6650 -93.6889 233° Southwest 332 382 14,500 2,220 Climbing Minneapolis Center
05:34PM 44.6090 -94.0549 246° West  Level Estimated
05:34PM 44.6083 -93.7964 234° Southwest 341 392 16,800  Level Minneapolis Center
05:35PM 44.5497 -93.9072 233° Southwest 353 406 18,700 1,920 Climbing Minneapolis Center
05:36PM 44.4775 -94.0472 234° Southwest 369 425 20,800 1,800 Climbing Minneapolis Center
05:37PM 44.4142 -94.1661 233° Southwest 381 438 22,500 1,440 Climbing Minneapolis Center
05:38PM 44.3497 -94.2892 234° Southwest 392 451 23,800 1,320 Climbing Minneapolis Center
05:39PM 44.2836 -94.4133 233° Southwest 399 459 25,300 1,260 Climbing Minneapolis Center
05:40PM 44.2158 -94.5378 233° Southwest 403 464 26,500 1,080 Climbing Minneapolis Center
05:41PM 44.1408 -94.6803 234° Southwest 412 474 27,600 1,020 Climbing Minneapolis Center
05:42PM 44.0694 -94.8106 233° Southwest 421 484 28,700 960 Climbing Minneapolis Center
05:43PM 44.0075 -94.9481 238° Southwest 422 486 29,700 960 Climbing Minneapolis Center
05:44PM 43.9539 -95.0886 242° Southwest 414 476 30,700 1,020 Climbing Minneapolis Center
05:45PM 43.8883 -95.2567 242° Southwest 413 475 31,900 1,020 Climbing Minneapolis Center
05:46PM 43.8342 -95.3969 242° Southwest 412 474 32,900 960 Climbing Minneapolis Center
05:47PM 43.7800 -95.5353 242° Southwest 409 471 33,900 960 Climbing Minneapolis Center
05:48PM 43.7253 -95.6722 241° Southwest 406 467 34,900 540 Climbing Minneapolis Center
05:49PM 43.6711 -95.8103 242° Southwest 406 467 35,100 480 Climbing Minneapolis Center
05:50PM 43.6153 -95.9481 241° Southwest 410 472 36,000 840 Climbing Minneapolis Center
05:51PM 43.5611 -96.0844 241° Southwest 405 466 36,900 900 Climbing Minneapolis Center
05:52PM 43.4969 -96.2436 241° Southwest 397 457 37,900 480 Climbing Minneapolis Center
05:53PM 43.4428 -96.3775 241° Southwest 399 459 38,000  Climbing Minneapolis Center
05:54PM 43.3869 -96.5156 241° Southwest 409 471 38,000  Level Minneapolis Center
05:55PM 43.3300 -96.6547 241° Southwest 414 476 38,000  Level Minneapolis Center
05:56PM 43.2844 -96.7661 241° Southwest 416 479 38,000  Level Minneapolis Center
05:57PM 43.2164 -96.9333 241° Southwest 418 481 38,000  Level Minneapolis Center
05:59PM 43.1581 -97.0747 241° Southwest 424 488 38,000  Level Minneapolis Center
06:00PM 43.0889 -97.2400 240° Southwest 418 481 38,000  Level Minneapolis Center
06:01PM 43.0306 -97.3806 240° Southwest 424 488 38,000  Level Minneapolis Center
06:02PM 42.9833 -97.4903 240° Southwest 421 484 38,000  Level Minneapolis Center
06:03PM 42.9133 -97.6589 240° Southwest 425 489 38,000  Level Minneapolis Center
06:04PM 42.8419 -97.8244 240° Southwest 423 487 38,000  Level Minneapolis Center
06:05PM 42.7847 -97.9633 241° Southwest 422 486 38,000  Level Minneapolis Center
06:06PM 42.7128 -98.1292 239° Southwest 424 488 38,000  Level Minneapolis Center
06:07PM 42.6569 -98.2581 240° Southwest 423 487 38,000  Level Minneapolis Center
06:08PM 42.5975 -98.3950 240° Southwest 421 484 38,000  Level Minneapolis Center
06:09PM 42.5375 -98.5333 240° Southwest 425 489 38,000  Level Minneapolis Center
06:10PM 42.4769 -98.6708 239° Southwest 425 489 38,000  Level Minneapolis Center
06:11PM 42.4206 -98.8431 246° West 419 482 38,000  Level Minneapolis Center
06:12PM 42.3747 -98.9875 247° West 420 483 38,000  Level Minneapolis Center
06:13PM 42.3281 -99.1317 246° West 419 482 38,000  Level Minneapolis Center
06:14PM 42.2808 -99.2750 246° West 419 482 38,000  Level Minneapolis Center
06:15PM 42.2336 -99.4200 246° West 420 483 38,000  Level Denver Center
06:16PM 42.1867 -99.5644 246° West 423 487 38,000  Level Denver Center
06:17PM 42.1361 -99.7150 246° West 425 489 38,000  Level Denver Center
06:18PM 42.0897 -99.8542 246° West 426 490 38,000  Level Denver Center
06:19PM 42.0364 -100.0186 246° West 429 494 38,000  Level Denver Center
06:20PM 41.9900 -100.1544 245° Southwest 422 486 38,000  Level Denver Center
06:21PM 41.9356 -100.3175 246° West 428 493 38,000  Level Denver Center
06:22PM 41.8886 -100.4550 245° Southwest 425 489 38,000  Level Denver Center
06:23PM 41.8342 -100.6164 246° West 427 491 38,000  Level Denver Center
06:24PM 41.7867 -100.7550 245° Southwest 429 494 38,000 120 Level Denver Center
06:25PM 41.7308 -100.9164 245° Southwest 428 493 38,300 420 Climbing Denver Center
06:26PM 41.6839 -101.0533 245° Southwest 425 489 38,900 600 Climbing Denver Center
06:28PM 41.6303 -101.2089 245° Southwest 417 480 39,600 480 Climbing Denver Center
06:29PM 41.5831 -101.3428 245° Southwest 417 480 40,000 180 Climbing Denver Center
06:30PM 41.5233 -101.4989 243° Southwest 421 484 40,000  Level Denver Center
06:31PM 41.4531 -101.6225 233° Southwest 437 503 40,000  Level Denver Center
06:32PM 41.3839 -101.7444 233° Southwest 434 499 40,000  Level Denver Center
06:33PM 41.3042 -101.8856 233° Southwest 430 495 40,000  Level Denver Center
06:34PM 41.2367 -102.0083 234° Southwest 431 496 40,000  Level Denver Center
06:35PM 41.1572 -102.1481 233° Southwest 428 493 40,000  Level Denver Center
06:36PM 41.0883 -102.2686 233° Southwest 428 493 40,000  Level Denver Center
06:37PM 41.0075 -102.4097 233° Southwest 430 495 40,000  Level Denver Center
06:38PM 40.9383 -102.5297 233° Southwest 429 494 40,000  Level Denver Center
06:39PM 40.8564 -102.6681 232° Southwest 428 493 40,000  Level Denver Center
06:40PM 40.7872 -102.7869 232° Southwest 427 491 40,000 -300 Level Denver Center
06:41PM 40.7075 -102.9258 233° Southwest 428 493 39,500 -600 Descending Denver Center
06:42PM 40.6344 -103.0469 232° Southwest 435 501 38,800 -780 Descending Denver Center
06:43PM 40.5606 -103.1733 232° Southwest 437 503 38,000 -540 Descending Denver Center
06:44PM 40.4875 -103.2981 232° Southwest 433 498 37,700 -780 Descending Denver Center
06:45PM 40.4139 -103.4228 232° Southwest 433 498 36,400 -1,500 Descending Denver Center
06:46PM 40.3228 -103.5736 232° Southwest 439 505 34,700 -1,200 Descending Denver Center
06:47PM 40.2472 -103.7025 233° Southwest 449 517 34,000 -360 Descending Denver Center
06:48PM 40.1706 -103.8350 233° Southwest 458 527 34,000  Level Denver Center
06:49PM 40.0928 -103.9628 232° Southwest 444 511 34,000  Level Denver Center
06:50PM 40.0144 -104.0906 231° Southwest 451 519 34,000  Level Denver Center
06:51PM 39.9378 -104.2147 231° Southwest 442 509 34,000  Level Denver Center
06:52PM 39.8622 -104.3400 232° Southwest 438 504 34,000  Level Denver Center
06:53PM 39.7700 -104.4892 231° Southwest 441 507 34,000  Level Denver Center
06:54PM 39.7058 -104.6222 238° Southwest 438 504 34,000  Level Denver Center
06:55PM 39.6764 -104.7692 255° West 450 518 34,000  Level Denver Center
06:56PM 39.6603 -104.9122 262° West 408 470 34,000 -1,080 Level Denver Center
06:57PM 39.6444 -105.0650 262° West 356 410 31,800 -2,520 Descending Denver Center
06:58PM 39.6294 -105.1989 262° West 371 427 28,900 -2,820 Descending Denver Center
06:59PM 39.6144 -105.3361 262° West 384 442 26,000 -2,400 Descending Denver Center
07:00PM 39.5992 -105.4756 262° West 381 438 24,000 -1,020 Descending Denver Center
07:02PM 39.5856 -105.6006 262° West 351 404 24,000  Level Denver Center
07:03PM 39.5711 -105.7325 262° West 346 398 24,000  Level Denver Center
07:04PM 39.5589 -105.8419 262° West 348 400 24,000 -1,200 Level Denver Center
07:05PM 39.5439 -105.9922 263° West 352 405 21,600 -1,980 Descending Denver Center
07:06PM 39.5300 -106.1158 262° West 349 402 20,000 -780 Descending Denver Center
07:07PM 39.5178 -106.2203 261° West 298 343 20,000  Level Denver Center
07:08PM 39.5061 -106.3244 262° West 293 337 20,000  Level Denver Center
07:09PM 39.4936 -106.4308 261° West 297 342 20,000 -300 Level Denver Center
07:10PM 39.4806 -106.5450 262° West 304 350 19,500 -1,020 Descending Denver Center
07:11PM 39.4661 -106.6719 262° West 318 366 17,900 -1,320 Descending Denver Center
07:12PM 39.4719 -106.7753 274° West 300 345 16,800 -1,380 Descending Denver Center
07:13PM 39.4775 -106.8872 274° West 282 325 15,100 -1,500 Descending Denver Center
07:14PM 39.4503 -106.9553 243° Southwest 267 307 13,800 -1,440 Descending Denver Center
07:15PM 39.3731 -106.9417 172° South 249 287 12,200 -1,620 Descending Denver Center
07:16PM 39.3228 -106.9158 158° South 216 249 10,500 -1,740 Descending Denver Center
07:17PM 39.2739 -106.8892 157° South 199 229 8,700 -1,800 Descending Denver Center